Paris, France

7:57 PM CET on December 10, 2016 (GMT +0100)
Rue Quincampoix | | Change Station

Elev 150 ft 48.86 °N, 2.35 °E | Updated 10 minutes ago

Fog
Fog
41.7 °F
Feels Like 42 °F
N
0.6
Wind Variable Wind from WSW
Gusts 1.2 mph

Today
High -- | Low -- °F
--% Chance of Precip.
Yesterday
High -- | Low -- °F
Precip. -- in
Pressure 30.27 in
Visibility 0.7 miles
Clouds
Windchill 42 °F
Dew Point 42 °F
Humidity 100%
Rainfall 0.00 in
Snow Depth Not available.
8:33 AM 4:53 PM
Waxing Gibbous, 85% visible
METAR LFPB 101830Z AUTO 17005KT 1200 1100 R27/1500U R09/1900U R07/1500U BR VV/// 06/05 Q1025 TEMPO 0500 FG BKN001
Pressure 30.27 in
Visibility 0.7 miles
Clouds
Windchill 42 °F
Dew Point 42 °F
Humidity 100%
Rainfall 0.00 in
Snow Depth Not available.
8:33 AM 4:53 PM
Waxing Gibbous, 85% visible
METAR LFPB 101830Z AUTO 17005KT 1200 1100 R27/1500U R09/1900U R07/1500U BR VV/// 06/05 Q1025 TEMPO 0500 FG BKN001

10-Day Weather Forecast

×

Almanac

Astronomy

Dec. 10, 2016 Rise Set
Actual Time
Civil Twilight
Nautical Twilight
Astronomical Twilight
Moon
Length of Visible Light
Length of Day
Tomorrow will be .
, % of the Moon is Illuminated

Today's Extremes

Country Highs Country Lows

Community

WunderPhotos

Upload Photos

1,956,620 photos uploaded!

WunderBlog® & News

Nearby

Air Quality

  Air Quality AQ Index Pollutant
Not available.

Snow Depth

Station Depth Elevation

Earthquake Activity

City Distance Mag. Time & Date
Minimum magnitude displayed is 2.5.

Coastal Water Temperatures

Place Temperature

Stations

Nearby Weather Stations

Station Location Temp. Windchill Dew Point Humidity Wind Precip. Elev Updated Type